sensor_id;sensor_type;location;lat;lon;timestamp;temperature;humidity
15156;DHT22;7678;50.058;8.306;2022-10-14T00:03:00;12.70;99.90
15156;DHT22;7678;50.058;8.306;2022-10-14T00:05:49;12.70;99.90
15156;DHT22;7678;50.058;8.306;2022-10-14T00:08:54;12.70;99.90
15156;DHT22;7678;50.058;8.306;2022-10-14T00:11:58;12.70;99.90
15156;DHT22;7678;50.058;8.306;2022-10-14T00:14:54;12.70;99.90
15156;DHT22;7678;50.058;8.306;2022-10-14T00:17:39;12.70;99.90
15156;DHT22;7678;50.058;8.306;2022-10-14T00:20:56;12.60;99.90
15156;DHT22;7678;50.058;8.306;2022-10-14T00:24:31;12.60;99.90
15156;DHT22;7678;50.058;8.306;2022-10-14T00:47:56;12.60;99.90
15156;DHT22;7678;50.058;8.306;2022-10-14T00:51:05;12.50;99.90
15156;DHT22;7678;50.058;8.306;2022-10-14T00:53:57;12.60;99.90
15156;DHT22;7678;50.058;8.306;2022-10-14T00:57:02;12.50;99.90
15156;DHT22;7678;50.058;8.306;2022-10-14T01:31:14;12.40;99.90
15156;DHT22;7678;50.058;8.306;2022-10-14T01:34:46;12.40;99.90
15156;DHT22;7678;50.058;8.306;2022-10-14T01:37:55;12.40;99.90
15156;DHT22;7678;50.058;8.306;2022-10-14T01:41:05;12.40;99.90
15156;DHT22;7678;50.058;8.306;2022-10-14T01:44:14;12.40;99.90
15156;DHT22;7678;50.058;8.306;2022-10-14T01:47:55;12.40;99.90
15156;DHT22;7678;50.058;8.306;2022-10-14T01:51:05;12.40;99.90
15156;DHT22;7678;50.058;8.306;2022-10-14T01:54:22;12.40;99.90
15156;DHT22;7678;50.058;8.306;2022-10-14T01:57:32;12.40;99.90
15156;DHT22;7678;50.058;8.306;2022-10-14T02:00:26;12.40;99.90
15156;DHT22;7678;50.058;8.306;2022-10-14T02:21:25;12.30;99.90
15156;DHT22;7678;50.058;8.306;2022-10-14T02:24:56;12.40;99.90
15156;DHT22;7678;50.058;8.306;2022-10-14T02:42:31;12.30;99.90
15156;DHT22;7678;50.058;8.306;2022-10-14T02:45:37;12.30;99.90
15156;DHT22;7678;50.058;8.306;2022-10-14T02:49:11;12.30;99.90
15156;DHT22;7678;50.058;8.306;2022-10-14T02:52:47;12.30;99.90
15156;DHT22;7678;50.058;8.306;2022-10-14T02:55:53;12.30;99.90
15156;DHT22;7678;50.058;8.306;2022-10-14T03:08:42;12.30;99.90
15156;DHT22;7678;50.058;8.306;2022-10-14T03:11:28;12.20;99.90
15156;DHT22;7678;50.058;8.306;2022-10-14T03:14:31;12.20;99.90
15156;DHT22;7678;50.058;8.306;2022-10-14T03:17:47;12.20;99.90
15156;DHT22;7678;50.058;8.306;2022-10-14T03:21:02;12.30;99.90
15156;DHT22;7678;50.058;8.306;2022-10-14T03:27:01;12.20;99.90
15156;DHT22;7678;50.058;8.306;2022-10-14T03:29:46;12.20;99.90
15156;DHT22;7678;50.058;8.306;2022-10-14T03:32:42;12.20;99.90
15156;DHT22;7678;50.058;8.306;2022-10-14T03:35:11;12.20;99.90
15156;DHT22;7678;50.058;8.306;2022-10-14T03:38:10;12.20;99.90
15156;DHT22;7678;50.058;8.306;2022-10-14T03:40:52;12.20;99.90
15156;DHT22;7678;50.058;8.306;2022-10-14T04:16:13;12.30;99.90
15156;DHT22;7678;50.058;8.306;2022-10-14T04:18:44;12.30;99.90
15156;DHT22;7678;50.058;8.306;2022-10-14T04:21:50;12.30;99.90
15156;DHT22;7678;50.058;8.306;2022-10-14T04:24:20;12.30;99.90
15156;DHT22;7678;50.058;8.306;2022-10-14T04:26:49;12.30;99.90
15156;DHT22;7678;50.058;8.306;2022-10-14T04:29:48;12.30;99.90
15156;DHT22;7678;50.058;8.306;2022-10-14T04:33:07;12.30;99.90
15156;DHT22;7678;50.058;8.306;2022-10-14T04:35:35;12.30;99.90
15156;DHT22;7678;50.058;8.306;2022-10-14T04:38:04;12.30;99.90
15156;DHT22;7678;50.058;8.306;2022-10-14T04:40:35;12.30;99.90
15156;DHT22;7678;50.058;8.306;2022-10-14T04:43:04;12.30;99.90
15156;DHT22;7678;50.058;8.306;2022-10-14T04:45:33;12.30;99.90
15156;DHT22;7678;50.058;8.306;2022-10-14T04:51:07;12.30;99.90
15156;DHT22;7678;50.058;8.306;2022-10-14T04:53:38;12.30;99.90
15156;DHT22;7678;50.058;8.306;2022-10-14T04:56:16;12.30;99.90
15156;DHT22;7678;50.058;8.306;2022-10-14T04:58:45;12.30;99.90
15156;DHT22;7678;50.058;8.306;2022-10-14T05:01:16;12.30;99.90
15156;DHT22;7678;50.058;8.306;2022-10-14T05:03:47;12.40;99.90
15156;DHT22;7678;50.058;8.306;2022-10-14T05:06:21;12.40;99.90
15156;DHT22;7678;50.058;8.306;2022-10-14T05:08:51;12.40;99.90
15156;DHT22;7678;50.058;8.306;2022-10-14T05:11:20;12.50;99.90
15156;DHT22;7678;50.058;8.306;2022-10-14T05:13:48;12.50;99.90
15156;DHT22;7678;50.058;8.306;2022-10-14T05:16:24;12.50;99.90
15156;DHT22;7678;50.058;8.306;2022-10-14T05:18:59;12.50;99.90
15156;DHT22;7678;50.058;8.306;2022-10-14T05:21:33;12.50;99.90
15156;DHT22;7678;50.058;8.306;2022-10-14T05:24:08;12.50;99.90
15156;DHT22;7678;50.058;8.306;2022-10-14T05:26:37;12.50;99.90
15156;DHT22;7678;50.058;8.306;2022-10-14T05:29:10;12.50;99.90
15156;DHT22;7678;50.058;8.306;2022-10-14T05:31:48;12.50;99.90
15156;DHT22;7678;50.058;8.306;2022-10-14T05:34:34;12.50;99.90
15156;DHT22;7678;50.058;8.306;2022-10-14T05:37:04;12.50;99.90
15156;DHT22;7678;50.058;8.306;2022-10-14T05:39:35;12.50;99.90
15156;DHT22;7678;50.058;8.306;2022-10-14T05:42:06;12.50;99.90
15156;DHT22;7678;50.058;8.306;2022-10-14T05:44:35;12.50;99.90
15156;DHT22;7678;50.058;8.306;2022-10-14T05:47:04;12.50;99.90
15156;DHT22;7678;50.058;8.306;2022-10-14T05:49:32;12.50;99.90
15156;DHT22;7678;50.058;8.306;2022-10-14T05:52:05;12.50;99.90
15156;DHT22;7678;50.058;8.306;2022-10-14T05:54:35;12.50;99.90
15156;DHT22;7678;50.058;8.306;2022-10-14T05:57:07;12.50;99.90
15156;DHT22;7678;50.058;8.306;2022-10-14T05:59:40;12.50;99.90
15156;DHT22;7678;50.058;8.306;2022-10-14T06:02:23;12.50;99.90
15156;DHT22;7678;50.058;8.306;2022-10-14T06:04:52;12.50;99.90
15156;DHT22;7678;50.058;8.306;2022-10-14T06:07:26;12.50;99.90
15156;DHT22;7678;50.058;8.306;2022-10-14T06:09:54;12.50;99.90
15156;DHT22;7678;50.058;8.306;2022-10-14T06:12:35;12.50;99.90
15156;DHT22;7678;50.058;8.306;2022-10-14T06:15:07;12.60;99.90
15156;DHT22;7678;50.058;8.306;2022-10-14T06:17:40;12.60;99.90
15156;DHT22;7678;50.058;8.306;2022-10-14T06:20:11;12.60;99.90
15156;DHT22;7678;50.058;8.306;2022-10-14T06:22:43;12.60;99.90
15156;DHT22;7678;50.058;8.306;2022-10-14T06:25:13;12.70;99.90
15156;DHT22;7678;50.058;8.306;2022-10-14T06:27:42;12.60;99.90
15156;DHT22;7678;50.058;8.306;2022-10-14T06:30:12;12.70;99.90
15156;DHT22;7678;50.058;8.306;2022-10-14T06:32:40;12.70;99.90
15156;DHT22;7678;50.058;8.306;2022-10-14T06:35:11;12.70;99.90
15156;DHT22;7678;50.058;8.306;2022-10-14T06:37:45;12.70;99.90
15156;DHT22;7678;50.058;8.306;2022-10-14T06:40:19;12.80;99.90
15156;DHT22;7678;50.058;8.306;2022-10-14T06:42:52;12.80;99.90
15156;DHT22;7678;50.058;8.306;2022-10-14T06:45:26;12.80;99.90
15156;DHT22;7678;50.058;8.306;2022-10-14T06:47:56;12.80;99.90
15156;DHT22;7678;50.058;8.306;2022-10-14T06:50:25;12.80;99.90
15156;DHT22;7678;50.058;8.306;2022-10-14T06:52:54;12.70;99.90
15156;DHT22;7678;50.058;8.306;2022-10-14T06:55:22;12.70;99.90
15156;DHT22;7678;50.058;8.306;2022-10-14T06:57:56;12.70;99.90
15156;DHT22;7678;50.058;8.306;2022-10-14T07:00:24;12.70;99.90
15156;DHT22;7678;50.058;8.306;2022-10-14T07:02:57;12.70;99.90
15156;DHT22;7678;50.058;8.306;2022-10-14T07:05:36;12.70;99.90
15156;DHT22;7678;50.058;8.306;2022-10-14T07:08:10;12.70;99.90
15156;DHT22;7678;50.058;8.306;2022-10-14T07:10:45;12.80;99.90
15156;DHT22;7678;50.058;8.306;2022-10-14T07:13:14;12.80;99.90
15156;DHT22;7678;50.058;8.306;2022-10-14T07:15:49;12.90;99.90
15156;DHT22;7678;50.058;8.306;2022-10-14T07:18:23;12.90;99.90
15156;DHT22;7678;50.058;8.306;2022-10-14T07:20:52;13.00;99.90
15156;DHT22;7678;50.058;8.306;2022-10-14T07:23:22;13.00;99.90
15156;DHT22;7678;50.058;8.306;2022-10-14T07:25:50;12.90;99.90
15156;DHT22;7678;50.058;8.306;2022-10-14T07:28:26;12.90;99.90
15156;DHT22;7678;50.058;8.306;2022-10-14T07:31:11;12.80;99.90
15156;DHT22;7678;50.058;8.306;2022-10-14T07:33:54;12.80;99.90
15156;DHT22;7678;50.058;8.306;2022-10-14T07:36:38;12.80;99.90
15156;DHT22;7678;50.058;8.306;2022-10-14T07:42:29;12.90;99.90
15156;DHT22;7678;50.058;8.306;2022-10-14T07:45:19;12.90;99.90
15156;DHT22;7678;50.058;8.306;2022-10-14T07:48:44;13.00;99.90
15156;DHT22;7678;50.058;8.306;2022-10-14T07:52:03;13.00;99.90
15156;DHT22;7678;50.058;8.306;2022-10-14T07:58:43;13.10;99.90
15156;DHT22;7678;50.058;8.306;2022-10-14T08:01:37;13.20;99.90
15156;DHT22;7678;50.058;8.306;2022-10-14T08:04:45;13.20;99.90
15156;DHT22;7678;50.058;8.306;2022-10-14T08:08:01;13.30;99.90
15156;DHT22;7678;50.058;8.306;2022-10-14T08:15:31;13.40;99.90
15156;DHT22;7678;50.058;8.306;2022-10-14T08:18:14;13.40;99.90
15156;DHT22;7678;50.058;8.306;2022-10-14T08:21:07;13.30;99.90
15156;DHT22;7678;50.058;8.306;2022-10-14T08:23:45;13.30;99.90
15156;DHT22;7678;50.058;8.306;2022-10-14T08:26:33;13.30;99.90
15156;DHT22;7678;50.058;8.306;2022-10-14T08:29:09;13.30;99.90
15156;DHT22;7678;50.058;8.306;2022-10-14T08:31:46;13.30;99.90
15156;DHT22;7678;50.058;8.306;2022-10-14T08:34:25;13.30;99.90
15156;DHT22;7678;50.058;8.306;2022-10-14T08:37:03;13.30;99.90
15156;DHT22;7678;50.058;8.306;2022-10-14T08:39:38;13.30;99.90
15156;DHT22;7678;50.058;8.306;2022-10-14T08:42:33;13.20;99.90
15156;DHT22;7678;50.058;8.306;2022-10-14T08:45:13;13.30;99.90
15156;DHT22;7678;50.058;8.306;2022-10-14T08:48:22;13.30;99.90
15156;DHT22;7678;50.058;8.306;2022-10-14T08:51:04;13.30;99.90
15156;DHT22;7678;50.058;8.306;2022-10-14T08:53:41;13.30;99.90
15156;DHT22;7678;50.058;8.306;2022-10-14T08:56:44;13.30;99.90
15156;DHT22;7678;50.058;8.306;2022-10-14T09:02:25;13.40;99.90
15156;DHT22;7678;50.058;8.306;2022-10-14T09:05:01;13.40;99.90
15156;DHT22;7678;50.058;8.306;2022-10-14T09:07:36;13.40;99.90
15156;DHT22;7678;50.058;8.306;2022-10-14T09:10:20;13.40;99.90
15156;DHT22;7678;50.058;8.306;2022-10-14T09:13:07;13.40;99.90
15156;DHT22;7678;50.058;8.306;2022-10-14T09:15:42;13.50;99.90
15156;DHT22;7678;50.058;8.306;2022-10-14T09:18:25;13.50;99.90
15156;DHT22;7678;50.058;8.306;2022-10-14T09:21:30;13.70;99.90
15156;DHT22;7678;50.058;8.306;2022-10-14T09:24:38;13.70;99.90
15156;DHT22;7678;50.058;8.306;2022-10-14T09:30:24;13.90;99.90
15156;DHT22;7678;50.058;8.306;2022-10-14T09:33:02;14.00;99.90
15156;DHT22;7678;50.058;8.306;2022-10-14T09:35:33;14.00;99.90
15156;DHT22;7678;50.058;8.306;2022-10-14T09:38:09;14.00;99.90
15156;DHT22;7678;50.058;8.306;2022-10-14T09:40:48;14.20;99.90
15156;DHT22;7678;50.058;8.306;2022-10-14T09:43:35;14.20;99.90
15156;DHT22;7678;50.058;8.306;2022-10-14T09:46:22;14.40;99.90
15156;DHT22;7678;50.058;8.306;2022-10-14T09:48:59;14.40;99.90
15156;DHT22;7678;50.058;8.306;2022-10-14T09:51:54;14.30;99.90
15156;DHT22;7678;50.058;8.306;2022-10-14T09:54:28;14.30;99.90
15156;DHT22;7678;50.058;8.306;2022-10-14T09:57:01;14.30;99.90
15156;DHT22;7678;50.058;8.306;2022-10-14T09:59:46;14.30;99.90
15156;DHT22;7678;50.058;8.306;2022-10-14T10:02:48;14.60;99.90
15156;DHT22;7678;50.058;8.306;2022-10-14T10:05:49;14.90;99.90
15156;DHT22;7678;50.058;8.306;2022-10-14T10:09:00;15.00;99.90
15156;DHT22;7678;50.058;8.306;2022-10-14T13:01:00;14.00;99.90
15156;DHT22;7678;50.058;8.306;2022-10-14T13:04:45;14.10;99.90
15156;DHT22;7678;50.058;8.306;2022-10-14T13:08:26;14.00;99.90
15156;DHT22;7678;50.058;8.306;2022-10-14T13:16:12;14.00;99.90
15156;DHT22;7678;50.058;8.306;2022-10-14T13:24:03;14.10;99.90
15156;DHT22;7678;50.058;8.306;2022-10-14T15:16:59;14.30;99.90
15156;DHT22;7678;50.058;8.306;2022-10-14T15:19:38;14.20;99.90
15156;DHT22;7678;50.058;8.306;2022-10-14T15:22:28;14.30;99.90
15156;DHT22;7678;50.058;8.306;2022-10-14T15:25:10;14.40;99.90
15156;DHT22;7678;50.058;8.306;2022-10-14T15:27:54;14.30;99.90
15156;DHT22;7678;50.058;8.306;2022-10-14T15:34:46;14.30;99.90
15156;DHT22;7678;50.058;8.306;2022-10-14T15:37:32;14.30;99.90
15156;DHT22;7678;50.058;8.306;2022-10-14T15:41:07;14.30;99.90
15156;DHT22;7678;50.058;8.306;2022-10-14T15:43:45;14.30;99.90
15156;DHT22;7678;50.058;8.306;2022-10-14T15:46:43;14.30;99.90
15156;DHT22;7678;50.058;8.306;2022-10-14T15:49:57;14.30;99.90
15156;DHT22;7678;50.058;8.306;2022-10-14T15:52:44;14.30;99.90
15156;DHT22;7678;50.058;8.306;2022-10-14T15:55:25;14.30;99.90
15156;DHT22;7678;50.058;8.306;2022-10-14T15:58:27;14.30;99.90
15156;DHT22;7678;50.058;8.306;2022-10-14T16:01:22;14.30;99.90
15156;DHT22;7678;50.058;8.306;2022-10-14T16:04:26;14.30;99.90
15156;DHT22;7678;50.058;8.306;2022-10-14T16:07:35;14.30;99.90
15156;DHT22;7678;50.058;8.306;2022-10-14T16:10:33;14.30;99.90
15156;DHT22;7678;50.058;8.306;2022-10-14T16:13:32;14.30;99.90
15156;DHT22;7678;50.058;8.306;2022-10-14T16:16:22;14.30;99.90
15156;DHT22;7678;50.058;8.306;2022-10-14T16:19:20;14.30;99.90
15156;DHT22;7678;50.058;8.306;2022-10-14T16:22:19;14.30;99.90
15156;DHT22;7678;50.058;8.306;2022-10-14T16:28:30;14.40;99.90
15156;DHT22;7678;50.058;8.306;2022-10-14T16:31:10;14.30;99.90
15156;DHT22;7678;50.058;8.306;2022-10-14T16:33:41;14.30;99.90
15156;DHT22;7678;50.058;8.306;2022-10-14T16:37:02;14.30;99.90
15156;DHT22;7678;50.058;8.306;2022-10-14T18:42:00;14.10;99.90
15156;DHT22;7678;50.058;8.306;2022-10-14T18:44:31;14.00;99.90
15156;DHT22;7678;50.058;8.306;2022-10-14T18:47:28;14.10;99.90
15156;DHT22;7678;50.058;8.306;2022-10-14T18:50:02;14.10;99.90
15156;DHT22;7678;50.058;8.306;2022-10-14T18:52:56;14.10;99.90
15156;DHT22;7678;50.058;8.306;2022-10-14T18:55:25;14.10;99.90
15156;DHT22;7678;50.058;8.306;2022-10-14T18:58:03;14.10;99.90
15156;DHT22;7678;50.058;8.306;2022-10-14T19:01:05;14.10;99.90
15156;DHT22;7678;50.058;8.306;2022-10-14T19:03:41;14.10;99.90
15156;DHT22;7678;50.058;8.306;2022-10-14T19:06:48;14.10;99.90
15156;DHT22;7678;50.058;8.306;2022-10-14T19:09:40;14.10;99.90
15156;DHT22;7678;50.058;8.306;2022-10-14T19:12:30;14.10;99.90
15156;DHT22;7678;50.058;8.306;2022-10-14T19:15:31;14.10;99.90
15156;DHT22;7678;50.058;8.306;2022-10-14T19:18:22;14.10;99.90
15156;DHT22;7678;50.058;8.306;2022-10-14T19:21:11;14.10;99.90
15156;DHT22;7678;50.058;8.306;2022-10-14T19:23:51;14.10;99.90
15156;DHT22;7678;50.058;8.306;2022-10-14T19:27:03;14.10;99.90
15156;DHT22;7678;50.058;8.306;2022-10-14T19:29:54;14.10;99.90
15156;DHT22;7678;50.058;8.306;2022-10-14T19:32:36;14.20;99.90
15156;DHT22;7678;50.058;8.306;2022-10-14T19:42:22;14.10;99.90
15156;DHT22;7678;50.058;8.306;2022-10-14T19:45:06;14.10;99.90
15156;DHT22;7678;50.058;8.306;2022-10-14T19:47:52;14.00;99.90
15156;DHT22;7678;50.058;8.306;2022-10-14T19:50:34;14.10;99.90
15156;DHT22;7678;50.058;8.306;2022-10-14T19:53:21;14.10;99.90
15156;DHT22;7678;50.058;8.306;2022-10-14T20:00:22;14.00;99.90
15156;DHT22;7678;50.058;8.306;2022-10-14T20:02:55;14.00;99.90
15156;DHT22;7678;50.058;8.306;2022-10-14T20:05:32;14.00;99.90
15156;DHT22;7678;50.058;8.306;2022-10-14T20:11:17;14.00;99.90
15156;DHT22;7678;50.058;8.306;2022-10-14T20:14:09;14.00;99.90
15156;DHT22;7678;50.058;8.306;2022-10-14T20:16:52;14.00;99.90
15156;DHT22;7678;50.058;8.306;2022-10-14T20:19:51;14.00;99.90
15156;DHT22;7678;50.058;8.306;2022-10-14T20:22:45;14.00;99.90
15156;DHT22;7678;50.058;8.306;2022-10-14T20:25:33;14.00;99.90
15156;DHT22;7678;50.058;8.306;2022-10-14T20:28:36;14.00;99.90
15156;DHT22;7678;50.058;8.306;2022-10-14T20:31:18;14.00;99.90
15156;DHT22;7678;50.058;8.306;2022-10-14T20:33:53;14.00;99.90
15156;DHT22;7678;50.058;8.306;2022-10-14T20:37:03;14.00;99.90
15156;DHT22;7678;50.058;8.306;2022-10-14T20:39:52;14.00;99.90
15156;DHT22;7678;50.058;8.306;2022-10-14T20:42:50;13.90;99.90
15156;DHT22;7678;50.058;8.306;2022-10-14T20:45:46;13.90;99.90
15156;DHT22;7678;50.058;8.306;2022-10-14T20:52:52;13.90;99.90
15156;DHT22;7678;50.058;8.306;2022-10-14T20:56:26;13.90;99.90
15156;DHT22;7678;50.058;8.306;2022-10-14T20:59:40;13.90;99.90
15156;DHT22;7678;50.058;8.306;2022-10-14T21:02:53;14.00;99.90
15156;DHT22;7678;50.058;8.306;2022-10-14T21:06:09;13.90;99.90
15156;DHT22;7678;50.058;8.306;2022-10-14T21:34:39;13.90;99.90
15156;DHT22;7678;50.058;8.306;2022-10-14T21:38:21;13.80;99.90
15156;DHT22;7678;50.058;8.306;2022-10-14T21:41:44;13.90;99.90
15156;DHT22;7678;50.058;8.306;2022-10-14T21:44:40;13.90;99.90
15156;DHT22;7678;50.058;8.306;2022-10-14T21:47:48;13.80;99.90
15156;DHT22;7678;50.058;8.306;2022-10-14T21:50:39;13.80;99.90
15156;DHT22;7678;50.058;8.306;2022-10-14T21:58:18;13.90;99.90
15156;DHT22;7678;50.058;8.306;2022-10-14T22:00:32;13.80;99.90
15156;DHT22;7678;50.058;8.306;2022-10-14T22:04:04;13.80;99.90
15156;DHT22;7678;50.058;8.306;2022-10-14T22:11:13;13.80;99.90
15156;DHT22;7678;50.058;8.306;2022-10-14T22:14:29;13.80;99.90
15156;DHT22;7678;50.058;8.306;2022-10-14T22:17:36;13.80;99.90
15156;DHT22;7678;50.058;8.306;2022-10-14T22:20:45;13.80;99.90
15156;DHT22;7678;50.058;8.306;2022-10-14T22:23:39;13.80;99.90
15156;DHT22;7678;50.058;8.306;2022-10-14T22:26:32;13.80;99.90
15156;DHT22;7678;50.058;8.306;2022-10-14T22:29:45;13.80;99.90
15156;DHT22;7678;50.058;8.306;2022-10-14T22:32:25;13.80;99.90
15156;DHT22;7678;50.058;8.306;2022-10-14T22:35:24;13.80;99.90
15156;DHT22;7678;50.058;8.306;2022-10-14T22:37:57;13.80;99.90
15156;DHT22;7678;50.058;8.306;2022-10-14T22:40:55;13.80;99.90
15156;DHT22;7678;50.058;8.306;2022-10-14T22:44:07;13.80;99.90
15156;DHT22;7678;50.058;8.306;2022-10-14T22:47:10;13.80;99.90
15156;DHT22;7678;50.058;8.306;2022-10-14T22:49:53;13.80;99.90
15156;DHT22;7678;50.058;8.306;2022-10-14T22:53:10;13.80;99.90
15156;DHT22;7678;50.058;8.306;2022-10-14T22:59:25;13.80;99.90
15156;DHT22;7678;50.058;8.306;2022-10-14T23:02:15;13.80;99.90
15156;DHT22;7678;50.058;8.306;2022-10-14T23:05:10;13.80;99.90
15156;DHT22;7678;50.058;8.306;2022-10-14T23:08:26;13.80;99.90
15156;DHT22;7678;50.058;8.306;2022-10-14T23:11:18;13.80;99.90
15156;DHT22;7678;50.058;8.306;2022-10-14T23:14:15;13.80;99.90
15156;DHT22;7678;50.058;8.306;2022-10-14T23:16:54;13.80;99.90
15156;DHT22;7678;50.058;8.306;2022-10-14T23:19:55;13.80;99.90
15156;DHT22;7678;50.058;8.306;2022-10-14T23:22:49;13.80;99.90
15156;DHT22;7678;50.058;8.306;2022-10-14T23:25:35;13.80;99.90
15156;DHT22;7678;50.058;8.306;2022-10-14T23:28:40;13.80;99.90
15156;DHT22;7678;50.058;8.306;2022-10-14T23:31:18;13.80;99.90
15156;DHT22;7678;50.058;8.306;2022-10-14T23:34:00;13.80;99.90
15156;DHT22;7678;50.058;8.306;2022-10-14T23:36:35;13.80;99.90
15156;DHT22;7678;50.058;8.306;2022-10-14T23:42:38;13.80;99.90
15156;DHT22;7678;50.058;8.306;2022-10-14T23:45:45;13.80;99.90
15156;DHT22;7678;50.058;8.306;2022-10-14T23:56:16;13.80;99.90
15156;DHT22;7678;50.058;8.306;2022-10-14T23:59:10;13.80;99.90
